createdAt,value
2018-11-14T00:01:14.675Z,2.40
2018-11-14T00:03:42.201Z,1.80
2018-11-14T00:06:09.774Z,1.57
2018-11-14T00:08:37.298Z,1.63
2018-11-14T00:11:04.866Z,1.60
2018-11-14T00:13:33.397Z,1.67
2018-11-14T00:16:00.967Z,2.10
2018-11-14T00:18:28.534Z,1.60
2018-11-14T00:20:56.838Z,1.57
2018-11-14T00:23:24.411Z,1.90
2018-11-14T00:25:51.968Z,1.70
2018-11-14T00:28:19.578Z,1.90
2018-11-14T00:30:47.102Z,1.53
2018-11-14T00:33:14.972Z,1.73
2018-11-14T00:35:42.228Z,1.83
2018-11-14T00:38:09.814Z,2.00
2018-11-14T00:40:37.350Z,2.10
2018-11-14T00:43:04.905Z,2.07
2018-11-14T00:45:32.429Z,1.70
2018-11-14T00:47:59.997Z,1.30
2018-11-14T00:50:28.578Z,1.30
2018-11-14T00:52:56.140Z,1.43
2018-11-14T00:55:24.439Z,1.40
2018-11-14T00:57:52.007Z,1.77
2018-11-14T01:00:19.569Z,1.83
2018-11-14T01:02:47.909Z,1.83
2018-11-14T01:05:15.467Z,1.80
2018-11-14T01:07:42.996Z,1.40
2018-11-14T01:10:12.255Z,1.50
2018-11-14T01:12:39.786Z,1.90
2018-11-14T01:15:08.328Z,1.60
2018-11-14T01:17:35.935Z,1.43
2018-11-14T01:20:03.457Z,2.63
2018-11-14T01:22:31.021Z,1.40
2018-11-14T01:24:58.549Z,1.50
2018-11-14T01:27:26.874Z,1.70
2018-11-14T01:29:55.169Z,1.93
2018-11-14T01:32:22.734Z,1.63
2018-11-14T01:34:50.263Z,1.60
2018-11-14T01:37:17.827Z,1.80
2018-11-14T01:39:45.363Z,1.90
2018-11-14T01:42:12.926Z,2.00
2018-11-14T01:44:40.481Z,1.60
2018-11-14T01:47:09.033Z,1.60
2018-11-14T01:49:37.318Z,1.63
2018-11-14T01:52:04.875Z,1.60
2018-11-14T01:54:32.405Z,1.80
2018-11-14T01:56:59.976Z,1.70
2018-11-14T01:59:27.493Z,2.40
2018-11-14T02:01:56.030Z,1.60
2018-11-14T02:04:24.538Z,2.20
2018-11-14T02:06:53.014Z,1.50
2018-11-14T02:09:20.569Z,1.50
2018-11-14T02:11:48.131Z,1.50
2018-11-14T02:14:15.694Z,2.03
2018-11-14T02:16:44.122Z,1.90
2018-11-14T02:19:13.680Z,1.50
2018-11-14T02:21:41.233Z,1.60
2018-11-14T02:24:08.790Z,1.50
2018-11-14T02:26:36.318Z,1.63
2018-11-14T02:29:03.877Z,1.77
2018-11-14T02:31:31.437Z,1.73
2018-11-14T02:34:00.951Z,1.60
2018-11-14T02:36:28.483Z,1.63
2018-11-14T02:38:56.046Z,1.40
2018-11-14T02:41:23.610Z,1.83
2018-11-14T02:43:51.165Z,1.47
2018-11-14T02:46:18.696Z,1.63
2018-11-14T02:48:47.017Z,1.30
2018-11-14T02:51:15.515Z,1.60
2018-11-14T02:53:43.074Z,1.50
2018-11-14T02:56:10.609Z,1.50
2018-11-14T02:58:38.161Z,1.93
2018-11-14T03:01:05.694Z,1.70
2018-11-14T03:03:33.257Z,1.30
2018-11-14T03:06:00.788Z,1.30
2018-11-14T03:08:29.082Z,1.53
2018-11-14T03:10:56.649Z,1.40
2018-11-14T03:13:24.175Z,1.70
2018-11-14T03:15:51.734Z,1.90
2018-11-14T03:18:19.297Z,1.80
2018-11-14T03:20:47.590Z,1.40
2018-11-14T03:23:15.154Z,1.40
2018-11-14T03:25:42.722Z,1.63
2018-11-14T03:28:10.282Z,1.30
2018-11-14T03:30:37.823Z,1.57
2018-11-14T03:33:05.394Z,1.20
2018-11-14T03:35:32.970Z,1.47
2018-11-14T03:38:00.546Z,1.50
2018-11-14T03:40:28.079Z,1.40
2018-11-14T03:42:55.637Z,1.53
2018-11-14T03:45:24.138Z,1.40
2018-11-14T03:47:52.630Z,1.33
2018-11-14T03:50:20.970Z,1.27
2018-11-14T03:52:48.497Z,1.20
2018-11-14T03:55:16.030Z,1.50
2018-11-14T03:57:44.361Z,1.30
2018-11-14T04:00:11.942Z,1.40
2018-11-14T04:02:39.531Z,1.73
2018-11-14T04:05:07.063Z,1.50
2018-11-14T04:07:34.630Z,1.50
2018-11-14T04:10:02.218Z,1.73
2018-11-14T04:12:29.775Z,1.77
2018-11-14T04:14:57.335Z,1.37
2018-11-14T04:17:24.902Z,1.53
2018-11-14T04:19:52.470Z,1.63
2018-11-14T04:22:19.998Z,1.40
2018-11-14T04:24:47.561Z,1.57
2018-11-14T04:27:15.088Z,1.47
2018-11-14T04:29:45.366Z,1.57
2018-11-14T04:32:12.894Z,1.30
2018-11-14T04:34:40.475Z,1.67
2018-11-14T04:37:08.006Z,1.60
2018-11-14T04:39:35.563Z,1.50
2018-11-14T04:42:03.094Z,1.47
2018-11-14T04:44:30.650Z,1.57
2018-11-14T04:46:58.188Z,1.40
2018-11-14T04:49:25.747Z,1.40
2018-11-14T04:51:56.074Z,1.90
2018-11-14T04:54:23.633Z,1.57
2018-11-14T04:56:51.168Z,1.73
2018-11-14T04:59:20.672Z,1.63
2018-11-14T05:01:48.326Z,1.60
2018-11-14T05:04:15.851Z,1.30
2018-11-14T05:06:43.405Z,1.40
2018-11-14T05:09:10.937Z,3.57
2018-11-14T05:11:38.502Z,1.63
2018-11-14T05:14:06.793Z,1.70
2018-11-14T05:16:34.383Z,2.83
2018-11-14T05:19:01.931Z,5.70
2018-11-14T05:21:29.495Z,5.43
2018-11-14T05:23:57.021Z,9.63
2018-11-14T05:26:24.586Z,6.30
2018-11-14T05:28:52.113Z,3.70
2018-11-14T05:31:19.666Z,5.90
2018-11-14T05:33:47.188Z,4.07
2018-11-14T05:36:14.750Z,4.00
2018-11-14T05:38:42.281Z,3.00
2018-11-14T05:41:09.845Z,6.93
2018-11-14T05:43:37.373Z,3.37
2018-11-14T05:46:04.938Z,2.10
2018-11-14T05:48:33.445Z,4.73
2018-11-14T05:51:01.014Z,2.97
2018-11-14T05:53:28.541Z,2.50
2018-11-14T05:55:56.098Z,2.10
2018-11-14T05:58:23.627Z,1.97
2018-11-14T06:00:51.186Z,1.90
2018-11-14T06:03:18.747Z,1.80
2018-11-14T06:05:47.042Z,1.80
2018-11-14T06:08:14.597Z,5.77
2018-11-14T06:10:42.196Z,2.53
2018-11-14T06:13:09.746Z,1.97
2018-11-14T06:15:37.278Z,2.17
2018-11-14T06:18:06.777Z,1.97
2018-11-14T06:20:34.338Z,1.87
2018-11-14T06:23:01.900Z,1.60
2018-11-14T06:25:29.430Z,1.73
2018-11-14T06:27:58.924Z,1.90
2018-11-14T06:30:26.481Z,1.70
2018-11-14T06:32:54.042Z,3.30
2018-11-14T06:35:22.338Z,2.97
2018-11-14T06:37:49.897Z,2.50
2018-11-14T06:40:18.390Z,2.30
2018-11-14T06:42:45.953Z,2.33
2018-11-14T06:45:14.432Z,2.40
2018-11-14T06:47:41.993Z,2.17
2018-11-14T06:50:10.552Z,2.13
2018-11-14T06:52:38.060Z,2.43
2018-11-14T06:55:05.585Z,3.03
2018-11-14T06:57:35.090Z,2.00
2018-11-14T07:00:02.620Z,2.00
2018-11-14T07:02:30.177Z,2.40
2018-11-14T07:04:57.722Z,2.40
2018-11-14T07:07:26.048Z,2.13
2018-11-14T07:09:53.583Z,1.70
2018-11-14T07:12:21.145Z,1.87
2018-11-14T07:14:49.624Z,2.10
2018-11-14T07:17:17.185Z,2.20
2018-11-14T07:19:44.709Z,1.50
2018-11-14T07:22:12.299Z,2.60
2018-11-14T07:24:40.830Z,3.83
2018-11-14T07:27:08.346Z,3.87
2018-11-14T07:29:35.920Z,3.17
2018-11-14T07:32:03.605Z,3.00
2018-11-14T07:34:31.183Z,2.50
2018-11-14T07:36:58.718Z,3.00
2018-11-14T07:39:26.278Z,3.00
2018-11-14T07:41:53.806Z,3.43
2018-11-14T07:44:21.365Z,3.40
2018-11-14T07:46:48.891Z,3.67
2018-11-14T07:49:16.553Z,3.43
2018-11-14T07:51:44.009Z,3.07
2018-11-14T07:54:13.509Z,3.37
2018-11-14T07:56:42.020Z,3.00
2018-11-14T07:59:09.557Z,3.47
2018-11-14T08:01:37.118Z,3.13
2018-11-14T08:04:05.597Z,2.20
2018-11-14T08:06:33.158Z,2.80
2018-11-14T08:09:00.717Z,2.03
2018-11-14T08:11:28.248Z,2.00
2018-11-14T08:13:55.807Z,2.10
2018-11-14T08:16:23.374Z,2.63
2018-11-14T08:18:51.554Z,2.03
2018-11-14T08:21:19.162Z,2.47
2018-11-14T08:23:46.718Z,2.30
2018-11-14T08:26:15.044Z,2.30
2018-11-14T08:28:42.601Z,2.50
2018-11-14T08:31:11.101Z,2.00
2018-11-14T08:33:39.430Z,1.90
2018-11-14T08:36:07.332Z,2.50
2018-11-14T08:38:34.887Z,2.70
2018-11-14T08:41:02.424Z,2.70
2018-11-14T08:43:29.985Z,2.70
2018-11-14T08:45:57.509Z,2.40
2018-11-14T08:48:25.070Z,2.77
2018-11-14T08:50:54.081Z,2.40
2018-11-14T08:53:22.618Z,2.43
2018-11-14T08:55:50.922Z,2.67
2018-11-14T08:58:20.467Z,2.10
2018-11-14T09:00:49.830Z,2.60
2018-11-14T09:03:19.369Z,2.57
2018-11-14T09:05:47.914Z,2.20
2018-11-14T09:08:15.483Z,3.10
2018-11-14T09:10:43.029Z,4.37
2018-11-14T09:13:10.682Z,2.97
2018-11-14T09:15:38.182Z,2.77
2018-11-14T09:18:05.765Z,2.47
2018-11-14T09:20:34.059Z,2.23
2018-11-14T09:23:02.577Z,2.50
2018-11-14T09:25:30.133Z,2.00
2018-11-14T09:27:57.659Z,3.53
2018-11-14T09:30:25.224Z,3.50
2018-11-14T09:32:52.804Z,3.70
2018-11-14T09:35:20.345Z,4.10
2018-11-14T09:37:47.865Z,4.13
2018-11-14T09:40:16.199Z,3.50
2018-11-14T09:42:43.732Z,3.43
2018-11-14T09:45:12.739Z,4.60
2018-11-14T09:47:40.257Z,4.63
2018-11-14T09:50:07.821Z,5.00
2018-11-14T09:52:35.362Z,5.33
2018-11-14T09:55:03.689Z,5.80
2018-11-14T09:57:31.225Z,7.07
2018-11-14T09:59:59.714Z,8.17
2018-11-14T10:02:28.225Z,7.30
2018-11-14T10:04:55.757Z,6.70
2018-11-14T10:07:23.329Z,7.53
2018-11-14T10:09:50.894Z,7.83
2018-11-14T10:12:18.424Z,7.63
2018-11-14T10:14:45.955Z,6.70
2018-11-14T10:17:13.526Z,7.87
2018-11-14T10:19:42.008Z,9.53
2018-11-14T10:22:09.565Z,8.20
2018-11-14T10:24:37.090Z,7.43
2018-11-14T10:27:04.650Z,8.10
2018-11-14T10:29:32.955Z,7.30
2018-11-14T10:32:00.528Z,6.97
2018-11-14T10:34:28.146Z,7.00
2018-11-14T10:36:55.710Z,7.17
2018-11-14T10:39:23.247Z,7.00
2018-11-14T10:41:52.754Z,6.37
2018-11-14T10:44:21.048Z,6.03
2018-11-14T10:46:48.624Z,6.80
2018-11-14T10:49:16.141Z,7.03
2018-11-14T10:51:43.706Z,7.20
2018-11-14T10:54:11.241Z,7.80
2018-11-14T10:56:38.810Z,7.70
2018-11-14T10:59:06.334Z,8.27
2018-11-14T11:01:33.894Z,7.50
2018-11-14T11:04:01.421Z,8.80
2018-11-14T11:06:28.989Z,8.20
2018-11-14T11:08:56.529Z,7.60
2018-11-14T11:11:24.097Z,7.87
2018-11-14T11:13:51.668Z,8.17
2018-11-14T11:16:25.761Z,7.70
2018-11-14T11:18:53.289Z,9.60
2018-11-14T11:21:20.863Z,8.53
2018-11-14T11:23:48.398Z,8.30
2018-11-14T11:26:16.733Z,8.13
2018-11-14T11:28:44.270Z,9.57
2018-11-14T11:31:11.842Z,8.47
2018-11-14T11:33:40.336Z,8.70
2018-11-14T11:36:07.918Z,9.67
2018-11-14T11:38:35.457Z,8.73
2018-11-14T11:41:03.000Z,11.23
2018-11-14T11:43:30.573Z,10.90
2018-11-14T11:45:59.136Z,11.23
2018-11-14T11:48:26.713Z,12.10
2018-11-14T11:50:59.750Z,13.30
2018-11-14T11:53:27.334Z,13.67
2018-11-14T11:55:54.915Z,13.83
2018-11-14T11:58:22.485Z,13.50
2018-11-14T12:00:50.097Z,14.40
2018-11-14T12:03:17.619Z,12.23
2018-11-14T12:05:45.213Z,13.67
2018-11-14T12:08:12.798Z,13.60
2018-11-14T12:10:40.398Z,12.40
2018-11-14T12:13:07.964Z,13.63
2018-11-14T12:15:35.536Z,12.90
2018-11-14T12:18:03.105Z,12.43
2018-11-14T12:20:30.654Z,12.13
2018-11-14T12:22:58.195Z,12.40
2018-11-14T12:25:25.777Z,13.50
2018-11-14T12:27:53.331Z,12.30
2018-11-14T12:30:20.956Z,11.30
2018-11-14T12:32:48.550Z,10.47
2018-11-14T12:35:17.070Z,9.87
2018-11-14T12:37:44.613Z,10.03
2018-11-14T12:40:12.192Z,10.20
2018-11-14T12:42:39.753Z,9.70
2018-11-14T12:45:07.377Z,9.70
2018-11-14T12:47:35.650Z,9.77
2018-11-14T12:50:03.215Z,9.80
2018-11-14T12:52:30.947Z,10.10
2018-11-14T12:54:58.529Z,9.33
2018-11-14T12:57:26.093Z,9.83
2018-11-14T12:59:53.697Z,8.10
2018-11-14T13:02:21.228Z,8.57
2018-11-14T13:04:49.008Z,8.37
2018-11-14T13:07:16.569Z,9.90
2018-11-14T13:09:44.916Z,10.83
2018-11-14T13:12:12.457Z,9.60
2018-11-14T13:14:40.000Z,9.00
2018-11-14T13:17:07.569Z,8.60
2018-11-14T13:19:35.105Z,7.57
2018-11-14T13:22:02.669Z,8.40
2018-11-14T13:24:30.205Z,7.83
2018-11-14T13:26:57.769Z,7.30
2018-11-14T13:29:25.304Z,6.53
2018-11-14T13:31:52.869Z,6.73
2018-11-14T13:34:20.405Z,7.93
2018-11-14T13:36:48.767Z,7.40
2018-11-14T13:39:16.293Z,6.80
2018-11-14T13:41:43.841Z,7.60
2018-11-14T13:44:11.402Z,7.10
2018-11-14T13:46:38.975Z,8.47
2018-11-14T13:49:06.653Z,10.00
2018-11-14T13:51:34.094Z,8.70
2018-11-14T13:54:02.634Z,10.80
2018-11-14T13:56:31.166Z,10.73
2018-11-14T13:58:58.731Z,9.37
2018-11-14T14:01:27.900Z,10.00
2018-11-14T14:03:55.558Z,10.57
2018-11-14T14:06:23.129Z,10.30
2018-11-14T14:08:50.714Z,10.77
2018-11-14T14:11:19.037Z,11.37
2018-11-14T14:13:46.622Z,11.00
2018-11-14T14:16:14.931Z,12.87
2018-11-14T14:18:45.847Z,13.23
2018-11-14T14:21:13.395Z,12.80
2018-11-14T14:23:40.987Z,12.23
2018-11-14T14:26:08.855Z,13.10
2018-11-14T14:28:36.435Z,15.40
2018-11-14T14:31:04.055Z,15.40
2018-11-14T14:33:31.577Z,14.33
2018-11-14T14:35:59.122Z,13.60
2018-11-14T14:38:26.806Z,15.90
2018-11-14T14:40:54.345Z,16.80
2018-11-14T14:43:21.927Z,18.37
2018-11-14T14:45:49.470Z,17.70
2018-11-14T14:48:17.046Z,17.33
2018-11-14T14:50:44.598Z,19.20
2018-11-14T14:53:12.227Z,21.00
2018-11-14T14:55:40.738Z,18.77
2018-11-14T14:58:08.275Z,20.03
2018-11-14T15:00:35.845Z,19.07
2018-11-14T15:03:03.446Z,18.47
2018-11-14T15:05:31.011Z,18.00
2018-11-14T15:07:58.542Z,19.23
2018-11-14T15:10:27.064Z,20.43
2018-11-14T15:12:54.610Z,21.50
2018-11-14T15:15:23.197Z,20.30
2018-11-14T15:17:50.734Z,25.80
2018-11-14T15:20:18.301Z,21.40
2018-11-14T15:22:45.931Z,23.57
2018-11-14T15:25:13.447Z,24.10
2018-11-14T15:27:41.963Z,23.73
2018-11-14T15:30:09.497Z,25.50
2018-11-14T15:32:37.092Z,25.77
2018-11-14T15:35:04.690Z,36.90
2018-11-14T15:37:32.281Z,43.00
2018-11-14T15:39:59.883Z,38.90
2018-11-14T15:42:27.461Z,31.30
2018-11-14T15:44:55.034Z,34.03
2018-11-14T15:47:22.599Z,29.00
2018-11-14T15:49:52.110Z,28.30
2018-11-14T15:52:19.680Z,30.80
2018-11-14T15:54:48.026Z,28.50
2018-11-14T15:57:16.535Z,30.37
2018-11-14T15:59:44.117Z,31.73
2018-11-14T16:02:12.664Z,32.63
2018-11-14T16:04:40.198Z,33.07
2018-11-14T16:07:07.739Z,33.23
2018-11-14T16:09:37.264Z,33.90
2018-11-14T16:12:04.806Z,39.10
2018-11-14T16:14:32.374Z,35.30
2018-11-14T16:16:59.910Z,37.20
2018-11-14T16:19:29.430Z,40.20
2018-11-14T16:21:56.960Z,41.40
2018-11-14T16:24:24.596Z,39.70
2018-11-14T16:26:52.138Z,38.57
2018-11-14T16:29:19.716Z,40.53
2018-11-14T16:31:48.253Z,38.03
2018-11-14T16:34:15.815Z,40.30
2018-11-14T16:36:43.381Z,37.23
2018-11-14T16:39:10.965Z,36.57
2018-11-14T16:41:38.501Z,39.17
2018-11-14T16:44:06.069Z,37.13
2018-11-14T16:46:34.431Z,42.43
2018-11-14T16:49:02.000Z,36.53
2018-11-14T16:51:29.536Z,31.60
2018-11-14T16:53:59.081Z,35.90
2018-11-14T16:56:26.652Z,36.43
2018-11-14T16:58:55.161Z,37.70
2018-11-14T17:01:24.678Z,37.30
2018-11-14T17:03:52.224Z,36.30
2018-11-14T17:06:19.791Z,37.73
2018-11-14T17:08:47.328Z,37.50
2018-11-14T17:11:14.893Z,35.60
2018-11-14T17:13:42.426Z,36.00
2018-11-14T17:16:09.998Z,35.80
2018-11-14T17:18:37.548Z,36.70
2018-11-14T17:21:07.109Z,34.67
2018-11-14T17:23:34.649Z,37.50
2018-11-14T17:26:02.263Z,37.43
2018-11-14T17:28:29.777Z,38.40
2018-11-14T17:30:57.346Z,33.33
2018-11-14T17:33:24.946Z,32.80
2018-11-14T17:35:52.491Z,33.27
2018-11-14T17:38:20.029Z,33.80
2018-11-14T17:40:47.565Z,30.10
2018-11-14T17:43:15.135Z,34.07
2018-11-14T17:45:43.437Z,25.90
2018-11-14T17:48:11.003Z,29.10
2018-11-14T17:50:38.599Z,25.03
2018-11-14T17:53:06.132Z,26.37
2018-11-14T17:55:33.767Z,28.40
2018-11-14T17:58:02.870Z,26.73
2018-11-14T18:00:31.357Z,26.37
2018-11-14T18:02:59.047Z,26.10
2018-11-14T18:05:26.498Z,26.40
2018-11-14T18:07:54.079Z,34.43
2018-11-14T18:10:21.627Z,33.37
2018-11-14T18:12:49.199Z,27.00
2018-11-14T18:15:17.502Z,26.37
2018-11-14T18:17:45.069Z,36.53
2018-11-14T18:20:12.647Z,27.70
2018-11-14T18:22:40.224Z,26.17
2018-11-14T18:25:07.783Z,34.83
2018-11-14T18:27:35.358Z,33.50
2018-11-14T18:30:03.013Z,24.67
2018-11-14T18:32:30.499Z,21.75
2018-11-14T18:34:58.065Z,27.40
2018-11-14T18:37:25.633Z,19.70
2018-11-14T18:39:53.192Z,20.80
2018-11-14T18:42:20.721Z,17.97
2018-11-14T18:44:48.337Z,18.80
2018-11-14T18:47:17.843Z,22.20
2018-11-14T18:49:45.406Z,21.70
2018-11-14T18:52:12.941Z,16.00
2018-11-14T18:54:40.503Z,14.33
2018-11-14T18:57:08.038Z,15.73
2018-11-14T18:59:35.615Z,14.83
2018-11-14T19:02:03.173Z,14.87
2018-11-14T19:04:30.738Z,16.07
2018-11-14T19:06:58.399Z,17.50
2018-11-14T19:09:25.870Z,16.80
2018-11-14T19:11:53.450Z,16.23
2018-11-14T19:14:21.022Z,14.73
2018-11-14T19:16:48.564Z,15.20
2018-11-14T19:19:18.900Z,15.60
2018-11-14T19:21:46.474Z,15.77
2018-11-14T19:24:14.054Z,17.53
2018-11-14T19:26:41.598Z,19.80
2018-11-14T19:29:09.175Z,18.30
2018-11-14T19:31:36.752Z,16.20
2018-11-14T19:34:05.297Z,15.70
2018-11-14T19:36:33.965Z,15.30
2018-11-14T19:39:01.578Z,13.80
2018-11-14T19:41:29.146Z,15.60
2018-11-14T19:43:56.717Z,12.83
2018-11-14T19:46:25.014Z,14.50
2018-11-14T19:48:52.584Z,14.97
2018-11-14T19:51:20.148Z,13.80
2018-11-14T19:53:47.679Z,12.80
2018-11-14T19:56:15.262Z,13.67
2018-11-14T19:58:42.803Z,14.87
2018-11-14T20:01:10.384Z,15.13
2018-11-14T20:03:38.873Z,14.80
2018-11-14T20:06:08.349Z,14.63
2018-11-14T20:08:35.882Z,17.13
2018-11-14T20:11:03.534Z,19.37
2018-11-14T20:13:31.108Z,22.20
2018-11-14T20:15:58.679Z,18.47
2018-11-14T20:18:26.249Z,16.23
2018-11-14T20:20:53.784Z,14.90
2018-11-14T20:23:21.350Z,13.03
2018-11-14T20:25:48.926Z,12.77
2018-11-14T20:28:18.435Z,10.80
2018-11-14T20:30:45.973Z,10.40
2018-11-14T20:33:14.513Z,11.70
2018-11-14T20:35:44.050Z,12.13
2018-11-14T20:38:11.613Z,12.90
2018-11-14T20:40:39.156Z,10.93
2018-11-14T20:43:06.817Z,11.23
2018-11-14T20:45:34.369Z,12.30
2018-11-14T20:48:01.973Z,12.77
2018-11-14T20:50:30.509Z,12.80
2018-11-14T20:52:58.073Z,13.90
2018-11-14T20:55:25.642Z,13.97
2018-11-14T20:57:53.225Z,16.30
2018-11-14T21:00:20.765Z,15.10
2018-11-14T21:02:48.322Z,14.57
2018-11-14T21:05:15.890Z,13.60
2018-11-14T21:07:43.423Z,13.33
2018-11-14T21:10:10.997Z,12.83
2018-11-14T21:12:38.572Z,12.10
2018-11-14T21:15:06.256Z,10.93
2018-11-14T21:17:33.828Z,11.00
2018-11-14T21:20:02.177Z,10.70
2018-11-14T21:22:29.709Z,9.50
2018-11-14T21:24:57.292Z,9.00
2018-11-14T21:27:24.866Z,8.93
2018-11-14T21:29:53.167Z,8.70
2018-11-14T21:32:22.687Z,9.73
2018-11-14T21:34:50.225Z,11.50
2018-11-14T21:37:17.801Z,10.90
2018-11-14T21:39:46.299Z,11.50
2018-11-14T21:42:14.799Z,13.50
2018-11-14T21:44:42.332Z,11.43
2018-11-14T21:47:09.892Z,11.30
2018-11-14T21:49:37.427Z,11.90
2018-11-14T21:52:05.020Z,12.90
2018-11-14T21:54:32.573Z,11.50
2018-11-14T21:57:00.141Z,11.03
2018-11-14T21:59:28.661Z,10.47
2018-11-14T22:01:56.259Z,12.13
2018-11-14T22:04:23.790Z,11.17
2018-11-14T22:06:51.368Z,11.40
2018-11-14T22:09:18.902Z,10.53
2018-11-14T22:11:46.473Z,10.20
2018-11-14T22:14:14.006Z,8.50
2018-11-14T22:16:42.572Z,9.03
2018-11-14T22:19:10.881Z,7.60
2018-11-14T22:21:38.457Z,9.20
2018-11-14T22:24:06.025Z,14.07
2018-11-14T22:26:33.581Z,15.57
2018-11-14T22:29:01.174Z,15.90
2018-11-14T22:31:28.725Z,18.43
2018-11-14T22:33:56.301Z,18.10
2018-11-14T22:36:23.839Z,21.07
2018-11-14T22:38:51.417Z,23.07
2018-11-14T22:41:18.957Z,17.80
2018-11-14T22:43:49.233Z,19.87
2018-11-14T22:46:16.765Z,19.57
2018-11-14T22:48:44.335Z,23.40
2018-11-14T22:51:11.870Z,24.40
2018-11-14T22:53:41.370Z,23.27
2018-11-14T22:56:08.906Z,25.53
2018-11-14T22:58:37.245Z,26.40
2018-11-14T23:01:04.791Z,20.40
2018-11-14T23:03:32.325Z,20.63
2018-11-14T23:05:59.906Z,19.23
2018-11-14T23:08:27.455Z,18.90
2018-11-14T23:10:55.985Z,17.83
2018-11-14T23:13:23.545Z,17.70
2018-11-14T23:15:51.857Z,18.53
2018-11-14T23:18:19.393Z,19.40
2018-11-14T23:20:47.730Z,18.30
2018-11-14T23:23:15.314Z,19.83
2018-11-14T23:25:42.869Z,17.70
2018-11-14T23:28:10.406Z,17.30
2018-11-14T23:30:37.975Z,16.97
2018-11-14T23:33:05.518Z,16.63
2018-11-14T23:35:33.085Z,17.87
2018-11-14T23:38:01.602Z,16.40
2018-11-14T23:40:29.174Z,15.10
2018-11-14T23:42:57.677Z,19.97
2018-11-14T23:45:25.259Z,15.30
2018-11-14T23:47:52.797Z,17.47
2018-11-14T23:50:20.332Z,18.93
2018-11-14T23:52:47.997Z,15.40
2018-11-14T23:55:15.567Z,14.80
2018-11-14T23:57:43.140Z,15.00
